createdAt,value
2023-04-04T00:01:13.386Z,1.80
2023-04-04T00:03:43.181Z,2.57
2023-04-04T00:06:12.606Z,1.47
2023-04-04T00:08:41.546Z,3.53
2023-04-04T00:11:11.284Z,2.23
2023-04-04T00:13:39.962Z,1.70
2023-04-04T00:16:11.849Z,2.83
2023-04-04T00:18:41.419Z,1.67
2023-04-04T00:21:10.243Z,2.47
2023-04-04T00:23:39.067Z,2.10
2023-04-04T00:26:11.797Z,2.93
2023-04-04T00:28:42.792Z,2.67
2023-04-04T00:31:12.916Z,2.43
2023-04-04T00:33:41.799Z,1.20
2023-04-04T00:36:11.707Z,1.53
2023-04-04T00:38:40.974Z,2.23
2023-04-04T00:41:11.506Z,4.33
2023-04-04T00:43:42.724Z,1.20
2023-04-04T00:46:15.358Z,2.30
2023-04-04T00:48:45.403Z,2.57
2023-04-04T00:51:14.953Z,3.17
2023-04-04T00:53:48.980Z,1.07
2023-04-04T00:56:18.252Z,2.70
2023-04-04T00:58:48.666Z,3.07
2023-04-04T01:01:19.478Z,3.13
2023-04-04T01:03:48.802Z,3.17
2023-04-04T01:06:18.274Z,3.70
2023-04-04T01:08:48.589Z,2.87
2023-04-04T01:11:18.346Z,1.73
2023-04-04T01:13:49.397Z,1.17
2023-04-04T01:16:21.670Z,3.17
2023-04-04T01:18:52.278Z,3.60
2023-04-04T01:21:24.037Z,3.63
2023-04-04T01:24:01.599Z,3.17
2023-04-04T01:26:39.752Z,1.77
2023-04-04T01:29:09.543Z,2.57
2023-04-04T01:31:43.956Z,1.27
2023-04-04T01:34:21.855Z,2.37
2023-04-04T01:37:03.572Z,2.50
2023-04-04T01:39:44.953Z,4.57
2023-04-04T01:42:20.502Z,2.23
2023-04-04T01:44:56.180Z,1.77
2023-04-04T01:47:31.395Z,3.40
2023-04-04T01:50:00.675Z,2.37
2023-04-04T01:52:30.413Z,1.20
2023-04-04T01:54:59.494Z,2.07
2023-04-04T01:57:29.905Z,2.80
2023-04-04T01:59:59.240Z,3.67
2023-04-04T02:02:28.802Z,2.23
2023-04-04T02:04:58.289Z,3.47
2023-04-04T02:07:28.140Z,2.57
2023-04-04T02:09:57.996Z,2.20
2023-04-04T02:12:28.276Z,1.67
2023-04-04T02:14:57.422Z,2.00
2023-04-04T02:17:26.359Z,1.10
2023-04-04T02:19:55.277Z,2.43
2023-04-04T02:22:23.741Z,1.37
2023-04-04T02:24:53.758Z,1.67
2023-04-04T02:27:23.426Z,3.70
2023-04-04T02:29:55.546Z,1.10
2023-04-04T02:32:25.113Z,3.43
2023-04-04T02:34:54.508Z,9.03
2023-04-04T02:37:24.392Z,3.70
2023-04-04T02:39:55.530Z,2.03
2023-04-04T02:42:25.126Z,3.43
2023-04-04T02:44:55.118Z,2.23
2023-04-04T02:47:23.908Z,1.23
2023-04-04T02:49:52.276Z,1.73
2023-04-04T02:52:22.748Z,1.60
2023-04-04T02:54:52.637Z,2.40
2023-04-04T02:57:32.376Z,2.53
2023-04-04T03:00:04.431Z,1.80
2023-04-04T03:02:33.742Z,2.47
2023-04-04T03:05:03.886Z,1.10
2023-04-04T03:07:32.311Z,2.33
2023-04-04T03:10:01.301Z,2.33
2023-04-04T03:12:30.102Z,1.73
2023-04-04T03:14:59.372Z,2.30
2023-04-04T03:17:30.012Z,2.00
2023-04-04T03:19:58.605Z,1.77
2023-04-04T03:22:27.810Z,1.80
2023-04-04T03:24:56.421Z,1.40
2023-04-04T03:27:24.723Z,1.33
2023-04-04T03:29:53.914Z,1.80
2023-04-04T03:32:22.571Z,2.13
2023-04-04T03:34:53.980Z,4.67
2023-04-04T03:37:23.658Z,1.40
2023-04-04T03:39:53.429Z,2.23
2023-04-04T03:42:23.326Z,1.77
2023-04-04T03:44:53.690Z,3.33
2023-04-04T03:47:32.376Z,2.33
2023-04-04T03:50:03.822Z,2.60
2023-04-04T03:52:40.838Z,3.43
2023-04-04T03:55:11.287Z,2.17
2023-04-04T03:57:42.101Z,4.90
2023-04-04T04:00:15.555Z,2.90
2023-04-04T04:02:47.039Z,2.20
2023-04-04T04:05:17.470Z,1.57
2023-04-04T04:07:47.979Z,2.40
2023-04-04T04:10:17.582Z,2.47
2023-04-04T04:12:47.776Z,1.30
2023-04-04T04:15:17.241Z,2.53
2023-04-04T04:17:46.993Z,2.80
2023-04-04T04:20:18.761Z,2.60
2023-04-04T04:22:54.112Z,3.57
2023-04-04T04:25:23.550Z,2.73
2023-04-04T04:28:00.779Z,2.80
2023-04-04T04:30:29.976Z,1.77
2023-04-04T04:32:59.614Z,1.67
2023-04-04T04:35:40.096Z,2.13
2023-04-04T04:38:11.134Z,1.67
2023-04-04T04:40:45.838Z,1.30
2023-04-04T04:43:21.628Z,1.97
2023-04-04T04:45:52.912Z,5.97
2023-04-04T04:48:22.715Z,1.47
2023-04-04T04:50:57.158Z,2.97
2023-04-04T06:08:54.380Z,2.63
2023-04-04T06:11:24.349Z,2.80
2023-04-04T06:13:56.867Z,3.37
2023-04-04T06:16:27.147Z,2.03
2023-04-04T06:18:56.361Z,1.57
2023-04-04T06:21:24.811Z,1.97
2023-04-04T06:23:56.889Z,2.83
2023-04-04T06:26:27.843Z,2.83
2023-04-04T06:28:57.467Z,3.40
2023-04-04T06:31:30.939Z,5.13
2023-04-04T06:34:05.959Z,2.47
2023-04-04T06:36:41.274Z,2.83
2023-04-04T06:39:12.121Z,4.23
2023-04-04T06:41:41.410Z,1.97
2023-04-04T06:44:10.788Z,1.93
2023-04-04T06:46:42.073Z,1.93
2023-04-04T06:49:12.044Z,1.47
2023-04-04T06:51:42.714Z,2.37
2023-04-04T06:54:13.414Z,2.93
2023-04-04T06:56:42.139Z,5.23
2023-04-04T06:59:12.678Z,2.83
2023-04-04T07:01:41.763Z,2.33
2023-04-04T07:04:11.363Z,5.23
2023-04-04T07:06:39.640Z,3.07
2023-04-04T07:09:18.544Z,3.93
2023-04-04T07:11:56.790Z,3.77
2023-04-04T07:14:26.410Z,3.47
2023-04-04T07:16:56.068Z,3.07
2023-04-04T07:19:28.558Z,2.73
2023-04-04T07:21:58.358Z,3.00
2023-04-04T07:24:26.843Z,3.33
2023-04-04T07:26:57.746Z,4.93
2023-04-04T07:29:27.898Z,3.40
2023-04-04T07:31:57.326Z,2.77
2023-04-04T07:34:27.156Z,3.70
2023-04-04T07:37:01.429Z,6.23
2023-04-04T07:39:32.077Z,3.07
2023-04-04T07:42:02.956Z,2.90
2023-04-04T07:44:31.804Z,2.70
2023-04-04T07:47:09.227Z,3.73
2023-04-04T07:49:39.003Z,1.70
2023-04-04T07:52:08.875Z,2.13
2023-04-04T07:54:40.897Z,4.40
2023-04-04T07:57:11.211Z,3.70
2023-04-04T07:59:40.425Z,3.53
2023-04-04T08:02:09.922Z,2.37
2023-04-04T08:04:39.017Z,2.30
2023-04-04T08:07:08.561Z,2.53
2023-04-04T08:09:37.721Z,2.80
2023-04-04T08:12:07.984Z,1.33
2023-04-04T08:14:38.542Z,2.63
2023-04-04T08:17:08.643Z,2.33
2023-04-04T08:19:37.939Z,3.10
2023-04-04T08:22:06.797Z,2.97
2023-04-04T08:24:37.274Z,3.47
2023-04-04T08:27:06.893Z,3.37
2023-04-04T08:29:37.482Z,2.53
2023-04-04T08:32:06.837Z,2.20
2023-04-04T08:34:35.321Z,5.27
2023-04-04T08:37:04.610Z,3.10
2023-04-04T08:39:33.538Z,3.20
2023-04-04T08:42:06.279Z,1.73
2023-04-04T08:44:38.816Z,2.40
2023-04-04T08:47:11.145Z,1.93
2023-04-04T08:49:45.129Z,2.50
2023-04-04T08:52:18.650Z,3.70
2023-04-04T08:54:51.004Z,3.50
2023-04-04T08:57:20.562Z,3.30
2023-04-04T08:59:51.087Z,2.00
2023-04-04T09:02:35.086Z,2.33
2023-04-04T09:05:07.151Z,4.00
2023-04-04T09:07:38.764Z,2.93
2023-04-04T09:10:12.413Z,1.93
2023-04-04T09:12:44.289Z,3.17
2023-04-04T09:15:16.839Z,4.97
2023-04-04T09:17:45.658Z,5.13
2023-04-04T09:20:41.208Z,2.17
2023-04-04T09:23:13.920Z,4.37
2023-04-04T09:28:22.705Z,3.40
2023-04-04T09:30:53.945Z,2.40
2023-04-04T09:33:25.123Z,5.87
2023-04-04T09:35:59.480Z,2.93
2023-04-04T09:38:31.477Z,2.33
2023-04-04T09:41:00.626Z,4.07
2023-04-04T09:43:33.910Z,3.10
2023-04-04T09:46:08.008Z,2.60
2023-04-04T09:48:37.868Z,6.87
2023-04-04T09:51:08.932Z,3.27
2023-04-04T09:53:39.829Z,3.00
2023-04-04T09:56:10.445Z,2.90
2023-04-04T09:58:52.458Z,2.93
2023-04-04T10:01:27.333Z,3.73
2023-04-04T10:03:59.243Z,3.60
2023-04-04T10:06:28.910Z,2.50
2023-04-04T10:08:59.416Z,3.30
2023-04-04T10:11:33.890Z,2.60
2023-04-04T10:14:05.225Z,2.73
2023-04-04T10:16:37.983Z,3.13
2023-04-04T10:19:09.698Z,5.30
2023-04-04T10:21:38.732Z,5.73
2023-04-04T10:24:10.589Z,3.00
2023-04-04T10:26:39.796Z,3.27
2023-04-04T10:29:08.943Z,3.03
2023-04-04T10:31:44.728Z,3.90
2023-04-04T10:34:26.132Z,2.80
2023-04-04T10:37:10.075Z,5.20
2023-04-04T10:39:50.417Z,3.03
2023-04-04T10:42:21.883Z,3.20
2023-04-04T10:44:53.328Z,2.17
2023-04-04T10:47:26.580Z,3.23
2023-04-04T10:49:57.158Z,2.60
2023-04-04T10:52:30.992Z,3.20
2023-04-04T10:55:04.653Z,3.50
2023-04-04T10:57:34.858Z,2.97
2023-04-04T11:00:08.291Z,2.23
2023-04-04T11:02:55.949Z,3.47
2023-04-04T11:05:28.317Z,2.50
2023-04-04T11:10:35.461Z,3.23
2023-04-04T11:13:13.684Z,2.73
2023-04-04T11:15:58.017Z,2.40
2023-04-04T11:18:49.939Z,3.17
2023-04-04T11:21:24.187Z,2.77
2023-04-04T11:24:16.279Z,2.37
2023-04-04T11:26:47.238Z,2.50
2023-04-04T11:29:44.779Z,2.30
2023-04-04T11:32:36.070Z,2.80
2023-04-04T11:35:07.152Z,4.63
2023-04-04T11:37:45.629Z,3.57
2023-04-04T11:40:15.617Z,3.23
2023-04-04T11:42:46.129Z,2.43
2023-04-04T11:45:21.638Z,4.00
2023-04-04T11:47:52.992Z,3.00
2023-04-04T11:50:22.250Z,2.97
2023-04-04T11:52:53.977Z,3.80
2023-04-04T11:55:23.720Z,3.10
2023-04-04T11:57:55.868Z,2.60
2023-04-04T12:00:33.174Z,3.03
2023-04-04T12:03:03.815Z,2.77
2023-04-04T12:05:33.090Z,2.07
2023-04-04T12:08:03.621Z,3.13
2023-04-04T12:10:36.510Z,3.70
2023-04-04T12:13:09.707Z,3.33
2023-04-04T12:15:39.335Z,2.47
2023-04-04T12:18:22.443Z,2.95
2023-04-04T12:20:54.212Z,3.90
2023-04-04T12:23:24.497Z,2.25
2023-04-04T12:25:55.991Z,2.10
2023-04-04T12:28:27.317Z,2.17
2023-04-04T12:30:57.873Z,2.50
2023-04-04T12:33:28.491Z,2.22
2023-04-04T12:35:57.142Z,2.63
2023-04-04T12:38:27.028Z,2.90
2023-04-04T12:40:55.702Z,2.47
2023-04-04T12:43:24.193Z,3.70
2023-04-04T12:45:53.026Z,5.68
2023-04-04T12:48:29.939Z,2.95
2023-04-04T12:51:00.363Z,3.60
2023-04-04T12:53:32.998Z,2.85
2023-04-04T12:56:05.359Z,3.42
2023-04-04T12:58:37.492Z,4.30
2023-04-04T13:01:07.566Z,3.13
2023-04-04T13:03:38.527Z,3.95
2023-04-04T13:06:14.377Z,2.10
2023-04-04T13:08:52.933Z,4.20
2023-04-04T13:11:22.202Z,2.55
2023-04-04T13:14:02.231Z,2.47
2023-04-04T13:16:34.651Z,2.50
2023-04-04T13:19:06.920Z,2.33
2023-04-04T13:21:36.863Z,3.08
2023-04-04T13:24:05.946Z,3.45
2023-04-04T13:26:34.921Z,2.72
2023-04-04T13:29:03.796Z,2.88
2023-04-04T13:31:32.949Z,4.25
2023-04-04T13:34:03.553Z,3.10
2023-04-04T13:36:32.456Z,2.93
2023-04-04T13:39:01.358Z,3.38
2023-04-04T13:41:31.004Z,2.70
2023-04-04T13:43:59.251Z,3.83
2023-04-04T13:46:27.755Z,3.37
2023-04-04T13:48:56.874Z,3.85
2023-04-04T13:51:27.233Z,3.58
2023-04-04T13:53:56.522Z,4.30
2023-04-04T13:56:25.518Z,3.28
2023-04-04T13:58:54.436Z,2.73
2023-04-04T14:01:24.056Z,7.00
2023-04-04T14:03:52.705Z,3.10
2023-04-04T14:06:22.435Z,4.85
2023-04-04T14:08:53.495Z,4.40
2023-04-04T14:11:25.809Z,4.22
2023-04-04T14:13:54.529Z,4.20
2023-04-04T14:16:23.554Z,3.80
2023-04-04T14:28:10.049Z,3.78
2023-04-04T14:59:39.038Z,2.70
2023-04-04T16:26:14.854Z,3.77
2023-04-04T16:28:46.837Z,6.07
2023-04-04T16:31:17.023Z,2.43
2023-04-04T16:33:45.614Z,5.00
2023-04-04T16:36:15.630Z,4.37
2023-04-04T16:38:45.647Z,8.13
2023-04-04T16:41:15.729Z,5.00
2023-04-04T16:43:48.545Z,3.60
2023-04-04T16:46:17.807Z,3.43
2023-04-04T16:48:46.065Z,3.33
2023-04-04T16:51:15.579Z,3.33
2023-04-04T16:53:44.354Z,4.00
2023-04-04T16:56:16.245Z,3.63
2023-04-04T16:58:47.652Z,4.40
2023-04-04T17:01:18.680Z,7.83
2023-04-04T17:03:48.125Z,4.77
2023-04-04T17:06:17.127Z,4.10
2023-04-04T17:08:47.486Z,3.27
2023-04-04T17:11:19.063Z,2.40
2023-04-04T17:13:50.158Z,5.20
2023-04-04T17:16:19.070Z,3.40
2023-04-04T17:18:48.800Z,4.90
2023-04-04T17:21:18.217Z,4.60
2023-04-04T17:23:48.050Z,4.37
2023-04-04T17:26:20.594Z,8.40
2023-04-04T17:28:49.846Z,3.27
2023-04-04T17:31:18.874Z,4.33
2023-04-04T17:33:48.305Z,5.27
2023-04-04T17:36:16.691Z,2.43
2023-04-04T17:38:46.260Z,3.80
2023-04-04T17:41:14.840Z,2.57
2023-04-04T17:43:44.702Z,2.47
2023-04-04T17:46:13.994Z,2.77
2023-04-04T17:48:43.892Z,2.93
2023-04-04T17:51:13.896Z,5.87
2023-04-04T17:53:43.021Z,3.10
2023-04-04T17:56:13.141Z,3.27
2023-04-04T17:58:43.256Z,3.67
2023-04-04T18:01:17.249Z,9.50
2023-04-04T18:03:50.131Z,6.10
2023-04-04T18:06:21.907Z,1.53
2023-04-04T18:08:51.651Z,3.07
2023-04-04T18:11:21.093Z,3.87
2023-04-04T18:13:50.613Z,3.00
2023-04-04T18:16:21.258Z,3.40
2023-04-04T18:18:50.121Z,2.33
2023-04-04T18:21:19.210Z,2.93
2023-04-04T18:23:47.394Z,4.23
2023-04-04T18:26:16.697Z,2.47
2023-04-04T18:28:45.312Z,4.00
2023-04-04T18:31:14.119Z,3.83
2023-04-04T18:33:44.080Z,2.57
2023-04-04T18:36:13.129Z,2.50
2023-04-04T18:38:42.370Z,3.13
2023-04-04T18:41:11.028Z,3.00
2023-04-04T18:43:40.015Z,2.77
2023-04-04T18:46:09.319Z,3.10
2023-04-04T18:48:38.782Z,4.23
2023-04-04T18:51:09.308Z,7.60
2023-04-04T18:53:38.306Z,3.70
2023-04-04T18:56:06.887Z,3.83
2023-04-04T18:58:36.005Z,3.13
2023-04-04T19:01:05.464Z,2.27
2023-04-04T19:03:43.486Z,2.30
2023-04-04T19:06:14.320Z,2.77
2023-04-04T19:13:08.747Z,3.00
2023-04-04T19:15:37.704Z,3.27
2023-04-04T19:18:06.831Z,4.83
2023-04-04T19:20:35.489Z,5.70
2023-04-04T19:23:05.571Z,5.27
2023-04-04T19:25:35.693Z,6.45
2023-04-04T19:28:04.905Z,4.13
2023-04-04T19:30:44.200Z,3.97
2023-04-04T19:33:15.314Z,5.83
2023-04-04T19:35:59.070Z,4.63
2023-04-04T19:38:32.726Z,2.63
2023-04-04T19:41:04.956Z,4.03
2023-04-04T19:43:34.130Z,3.80
2023-04-04T19:46:10.867Z,3.17
2023-04-04T19:48:45.066Z,5.80
2023-04-04T19:51:40.356Z,6.23
2023-04-04T19:54:16.442Z,10.17
2023-04-04T19:56:48.115Z,9.17
2023-04-04T20:00:05.477Z,10.77
2023-04-04T20:02:54.163Z,26.17
2023-04-04T20:06:01.179Z,35.10
2023-04-04T20:08:48.984Z,15.13
2023-04-04T20:11:30.493Z,7.30
2023-04-04T20:14:04.222Z,26.70
2023-04-04T20:16:34.090Z,55.63
2023-04-04T20:19:08.223Z,47.73
2023-04-04T20:21:37.903Z,87.97
2023-04-04T20:24:09.437Z,35.07
2023-04-04T20:26:54.763Z,21.93
2023-04-04T20:29:26.792Z,50.77
2023-04-04T20:31:58.095Z,77.37
2023-04-04T20:34:42.915Z,66.90
2023-04-04T20:37:16.521Z,41.23
2023-04-04T20:39:54.178Z,47.57
2023-04-04T20:42:40.805Z,28.30
2023-04-04T20:45:39.321Z,70.03
2023-04-04T20:48:08.793Z,37.40
2023-04-04T20:50:46.336Z,41.37
2023-04-04T20:53:22.057Z,33.97
2023-04-04T20:55:52.044Z,29.77
2023-04-04T20:58:40.421Z,12.47
2023-04-04T21:01:12.452Z,8.33
2023-04-04T21:03:40.975Z,6.70
2023-04-04T21:06:14.445Z,7.10
2023-04-04T21:08:47.389Z,4.87
2023-04-04T21:11:29.094Z,5.30
2023-04-04T21:13:59.148Z,13.70
2023-04-04T21:16:29.582Z,9.20
2023-04-04T21:19:01.515Z,3.93
2023-04-04T21:21:32.070Z,3.17
2023-04-04T21:24:02.194Z,2.80
2023-04-04T21:26:35.702Z,4.43
2023-04-04T21:29:08.543Z,4.67
2023-04-04T21:31:41.443Z,5.17
2023-04-04T21:34:17.026Z,6.83
2023-04-04T21:36:47.349Z,4.47
2023-04-04T21:39:22.639Z,3.73
2023-04-04T21:41:54.830Z,3.40
2023-04-04T21:44:26.345Z,4.10
2023-04-04T21:46:55.926Z,4.80
2023-04-04T21:49:25.399Z,5.83
2023-04-04T21:51:53.864Z,4.83
2023-04-04T21:54:22.433Z,5.63
2023-04-04T21:56:51.206Z,3.17
2023-04-04T21:59:20.752Z,3.87
2023-04-04T22:01:52.713Z,3.73
2023-04-04T22:04:22.083Z,3.97
2023-04-04T22:06:51.131Z,2.80
2023-04-04T22:09:22.734Z,3.63
2023-04-04T22:11:54.053Z,4.07
2023-04-04T22:14:23.059Z,3.37
2023-04-04T22:16:53.679Z,4.13
2023-04-04T22:19:23.713Z,3.17
2023-04-04T22:21:54.021Z,3.20
2023-04-04T22:24:23.496Z,5.43
2023-04-04T22:26:51.890Z,3.13
2023-04-04T22:29:20.676Z,4.53
2023-04-04T22:31:49.143Z,3.00
2023-04-04T22:34:18.914Z,3.27
2023-04-04T22:36:47.164Z,4.13
2023-04-04T22:39:16.343Z,4.47
2023-04-04T22:41:45.608Z,3.77
2023-04-04T22:44:14.002Z,3.50
2023-04-04T22:46:42.397Z,2.73
2023-04-04T22:49:10.925Z,6.60
2023-04-04T22:51:45.664Z,4.53
2023-04-04T22:54:16.612Z,3.60
2023-04-04T22:56:45.564Z,4.17
2023-04-04T22:59:14.188Z,2.70
2023-04-04T23:01:42.789Z,2.80
2023-04-04T23:04:11.528Z,4.23
2023-04-04T23:06:41.402Z,4.37
2023-04-04T23:09:09.772Z,2.87
2023-04-04T23:11:39.851Z,3.80
2023-04-04T23:14:09.597Z,5.00
2023-04-04T23:16:40.324Z,4.40
2023-04-04T23:19:08.859Z,2.60
2023-04-04T23:21:38.131Z,2.50
2023-04-04T23:24:08.887Z,3.43
2023-04-04T23:26:37.772Z,4.93
2023-04-04T23:29:06.845Z,2.90
2023-04-04T23:31:36.770Z,2.40
2023-04-04T23:34:05.560Z,3.47
2023-04-04T23:36:34.334Z,3.37
2023-04-04T23:39:04.035Z,4.23
2023-04-04T23:41:34.055Z,2.67
2023-04-04T23:44:02.608Z,3.20
2023-04-04T23:46:32.716Z,5.03
2023-04-04T23:49:02.012Z,4.80
2023-04-04T23:51:38.085Z,5.70
2023-04-04T23:54:08.210Z,3.00
2023-04-04T23:56:38.637Z,3.17
2023-04-04T23:59:13.316Z,3.90
